Time;durP1;ratioP1;P1;durP2;ratioP2;P2;SDS_P1;SDS_P2;PMS_P1;PMS_P2;Temp;Humidity;BMP_temperature;BMP_pressure;BME280_temperature;BME280_humidity;BME280_pressure;Samples;Min_cycle;Max_cycle;Signal;HPM_P1;HPM_P2
2023/03/08 00:02:05;;;;;;;0.80;0.80;;;;;;;10.86;85.97;99307.63;5042633;28;20205;-72
2023/03/08 00:04:32;;;;;;;1.38;1.38;;;;;;;10.89;87.21;99307.63;5094457;28;20202;-73
2023/03/08 00:06:59;;;;;;;0.80;0.80;;;;;;;10.90;88.20;99309.34;5094754;28;20247;-73
2023/03/08 00:09:27;;;;;;;0.80;0.80;;;;;;;10.87;89.22;99311.94;5094364;28;20205;-73
2023/03/08 00:11:54;;;;;;;0.73;0.73;;;;;;;10.67;90.67;99288.56;5094420;28;20222;-73
2023/03/08 00:14:21;;;;;;;0.90;0.90;;;;;;;10.58;91.81;99303.25;5094259;28;20194;-73
2023/03/08 00:16:48;;;;;;;0.80;0.80;;;;;;;10.51;93.55;99309.28;5093785;28;20210;-72
2023/03/08 00:19:15;;;;;;;0.70;0.70;;;;;;;10.41;94.40;99305.81;5094040;28;20206;-73
2023/03/08 00:21:41;;;;;;;0.70;0.70;;;;;;;10.31;96.03;99312.66;5094527;28;20197;-73
2023/03/08 00:24:09;;;;;;;0.70;0.70;;;;;;;10.27;97.17;99312.66;5094338;28;20194;-73
2023/03/08 00:26:37;;;;;;;0.90;0.90;;;;;;;10.16;98.05;99298.81;5094070;28;20213;-73
2023/03/08 00:29:03;;;;;;;0.70;0.70;;;;;;;10.13;99.04;99303.94;5083944;28;20225;-73
2023/03/08 00:31:30;;;;;;;0.60;0.60;;;;;;;10.14;99.11;99306.56;5039518;28;20230;-73
2023/03/08 00:33:57;;;;;;;0.80;0.80;;;;;;;9.97;99.59;99277.09;5094186;28;20209;-73
2023/03/08 00:36:24;;;;;;;0.70;0.70;;;;;;;9.94;100.00;99287.44;5042056;28;20607;-73
2023/03/08 00:38:51;;;;;;;0.65;0.65;;;;;;;9.92;100.00;99302.09;5093786;28;20202;-72
2023/03/08 00:41:18;;;;;;;0.70;0.70;;;;;;;9.90;100.00;99298.63;5093762;28;20194;-73
2023/03/08 00:43:46;;;;;;;0.70;0.70;;;;;;;9.83;100.00;99289.13;5093670;28;20201;-73
2023/03/08 00:46:14;;;;;;;0.60;0.60;;;;;;;9.74;100.00;99291.63;5093160;28;20194;-73
2023/03/08 00:48:40;;;;;;;0.80;0.80;;;;;;;9.58;100.00;99266.53;5093949;28;20198;-73
2023/03/08 00:51:08;;;;;;;0.70;0.70;;;;;;;9.73;100.00;99282.16;5093874;28;20218;-72
2023/03/08 00:53:35;;;;;;;0.70;0.70;;;;;;;9.64;100.00;99271.75;5093859;28;20209;-74
2023/03/08 00:56:01;;;;;;;0.80;0.80;;;;;;;9.79;100.00;99289.94;5093732;28;20198;-73
2023/03/08 00:58:29;;;;;;;0.70;0.70;;;;;;;9.87;100.00;99285.69;5093579;28;20222;-73
2023/03/08 01:00:58;;;;;;;0.70;0.70;;;;;;;9.87;100.00;99276.19;5057745;28;20206;-72
2023/03/08 01:03:25;;;;;;;0.80;0.80;;;;;;;9.73;100.00;99253.69;5051053;28;20214;-72
2023/03/08 01:05:54;;;;;;;0.70;0.70;;;;;;;9.72;100.00;99255.41;5093764;28;20194;-73
2023/03/08 01:08:22;;;;;;;0.80;0.80;;;;;;;9.67;100.00;99251.03;5093145;28;20209;-73
2023/03/08 01:10:50;;;;;;;0.70;0.70;;;;;;;9.86;100.00;99290.00;5093386;28;20254;-73
2023/03/08 01:13:17;;;;;;;0.70;0.70;;;;;;;9.67;100.00;99261.41;5092943;28;20660;-73
2023/03/08 01:15:45;;;;;;;0.70;0.70;;;;;;;9.85;100.00;99293.44;5093745;28;20190;-73
2023/03/08 01:18:13;;;;;;;0.80;0.80;;;;;;;9.81;100.00;99275.31;5093267;28;20243;-73
2023/03/08 01:20:40;;;;;;;0.70;0.70;;;;;;;9.81;100.00;99296.03;5092907;28;20210;-73
2023/03/08 01:23:07;;;;;;;0.82;0.82;;;;;;;9.63;100.00;99267.44;5092955;28;20656;-73
2023/03/08 01:25:33;;;;;;;0.70;0.70;;;;;;;9.64;100.00;99284.69;5093239;28;20205;-73
2023/03/08 01:28:00;;;;;;;0.90;0.90;;;;;;;9.46;100.00;99263.00;5092931;28;20201;-73
2023/03/08 01:30:27;;;;;;;1.70;1.70;;;;;;;9.36;100.00;99250.88;5092525;28;20250;-73
2023/03/08 01:32:54;;;;;;;0.80;0.80;;;;;;;9.50;100.00;99273.38;5091540;28;20289;-73
2023/03/08 01:35:22;;;;;;;0.70;0.70;;;;;;;9.57;100.00;99272.56;5091924;28;20190;-74
2023/03/08 01:37:52;;;;;;;0.70;0.70;;;;;;;9.03;100.00;99173.06;5093057;28;20198;-74
2023/03/08 01:40:19;;;;;;;0.70;0.70;;;;;;;9.38;100.00;99264.69;5092378;28;20672;-73
2023/03/08 01:42:45;;;;;;;0.75;0.75;;;;;;;9.44;100.00;99269.91;5057363;28;20612;-74
2023/03/08 01:45:45;;;;;;;0.70;0.70;;;;;;;9.54;100.00;99259.59;5059205;28;20190;-74
2023/03/08 01:48:14;;;;;;;0.70;0.70;;;;;;;9.44;100.00;99241.47;5091742;28;20205;-74
2023/03/08 01:50:45;;;;;;;0.60;0.60;;;;;;;9.63;100.00;99259.69;5092941;28;20221;-74
2023/03/08 01:53:13;;;;;;;0.70;0.70;;;;;;;9.59;100.00;99252.75;5092714;28;20213;-74
2023/03/08 01:55:39;;;;;;;0.70;0.70;;;;;;;9.57;100.00;99254.44;5092879;28;20234;-74
2023/03/08 01:58:06;;;;;;;0.70;0.70;;;;;;;9.59;100.00;99257.94;5056457;28;20230;-73
2023/03/08 02:00:33;;;;;;;5.93;1.60;;;;;;;9.68;100.00;99257.97;5092457;28;20195;-73
2023/03/08 02:03:03;;;;;;;0.70;0.70;;;;;;;9.74;100.00;99255.41;5092486;28;20202;-73
2023/03/08 02:05:31;;;;;;;0.65;0.65;;;;;;;9.66;100.00;99262.28;5092256;28;20268;-73
2023/03/08 02:07:59;;;;;;;0.73;0.73;;;;;;;9.62;100.00;99255.34;5092278;28;20206;-74
2023/03/08 02:10:26;;;;;;;0.70;0.70;;;;;;;9.68;100.00;99256.25;5092133;28;20210;-74
2023/03/08 02:12:53;;;;;;;0.90;0.90;;;;;;;9.66;100.00;99254.50;5091860;28;20198;-73
2023/03/08 02:15:21;;;;;;;0.90;0.90;;;;;;;9.57;100.00;99239.78;5092144;28;20213;-73
2023/03/08 02:17:48;;;;;;;0.80;0.80;;;;;;;9.65;100.00;99237.25;5092288;28;20206;-73
2023/03/08 02:20:18;;;;;;;0.70;0.70;;;;;;;9.88;98.49;99246.84;5090905;28;20205;-74
2023/03/08 02:22:48;;;;;;;0.70;0.70;;;;;;;9.88;98.40;99236.47;5092122;28;20198;-73
2023/03/08 02:25:16;;;;;;;1.27;1.27;;;;;;;9.89;98.63;99255.47;5039480;28;20202;-72
2023/03/08 02:27:44;;;;;;;0.80;0.80;;;;;;;9.77;100.00;99251.13;5091904;28;20190;-73
2023/03/08 02:30:13;;;;;;;0.68;0.68;;;;;;;9.80;100.00;99255.44;5091160;28;20614;-73
2023/03/08 02:32:39;;;;;;;0.70;0.70;;;;;;;9.74;100.00;99252.81;5091775;28;20233;-73
2023/03/08 02:35:07;;;;;;;0.70;0.70;;;;;;;9.66;100.00;99270.03;5047306;28;20206;-74
2023/03/08 02:37:34;;;;;;;0.80;0.80;;;;;;;9.72;98.34;99254.53;5083896;28;20198;-73
2023/03/08 02:40:02;;;;;;;0.60;0.60;;;;;;;9.90;98.76;99264.97;5091080;28;20664;-74
2023/03/08 02:42:29;;;;;;;0.80;0.80;;;;;;;9.36;100.00;99181.03;5091169;28;20194;-74
2023/03/08 02:44:55;;;;;;;0.80;0.80;;;;;;;9.74;98.74;99271.78;5091368;28;20656;-73
2023/03/08 02:47:22;;;;;;;0.60;0.60;;;;;;;9.70;100.00;99266.63;5091201;28;20670;-73
2023/03/08 02:49:49;;;;;;;0.90;0.90;;;;;;;9.46;100.00;99263.00;5091666;28;20202;-73
2023/03/08 02:52:16;;;;;;;1.00;1.00;;;;;;;9.34;100.00;99252.63;5091615;28;20226;-73
2023/03/08 02:54:42;;;;;;;0.70;0.70;;;;;;;9.56;94.36;99260.50;5091870;28;20202;-74
2023/03/08 02:57:11;;;;;;;0.68;0.68;;;;;;;10.26;83.38;99272.94;5091044;28;20229;-73
2023/03/08 02:59:37;;;;;;;0.80;0.80;;;;;;;10.43;78.98;99253.09;5055731;28;20255;-74
2023/03/08 03:02:04;;;;;;;0.73;0.73;;;;;;;10.68;79.58;99266.97;5091414;28;20202;-74
2023/03/08 03:04:32;;;;;;;0.70;0.70;;;;;;;10.87;76.64;99265.28;5091360;28;20206;-73
2023/03/08 03:07:00;;;;;;;0.80;0.80;;;;;;;11.18;71.42;99281.69;5091295;28;20210;-74
2023/03/08 03:09:27;;;;;;;0.60;0.60;;;;;;;11.36;69.88;99285.16;5090964;28;20194;-73
2023/03/08 03:11:54;;;;;;;0.70;0.70;;;;;;;11.15;69.29;99238.47;5055636;28;20602;-72
2023/03/08 03:14:22;;;;;;;0.80;0.80;;;;;;;11.50;68.81;99284.25;5091195;28;20205;-73
2023/03/08 03:16:49;;;;;;;0.70;0.70;;;;;;;11.35;68.31;99260.06;5091136;28;20206;-73
2023/03/08 03:19:16;;;;;;;0.80;0.80;;;;;;;11.69;65.92;99286.81;5091007;28;20205;-73
2023/03/08 03:21:43;;;;;;;0.88;0.88;;;;;;;11.88;64.31;99285.06;5090995;28;20649;-75
2023/03/08 03:24:10;;;;;;;0.70;0.70;;;;;;;11.99;62.88;99288.47;5055068;28;20643;-74
2023/03/08 03:26:37;;;;;;;0.65;0.65;;;;;;;12.10;62.29;99289.31;5091078;28;20201;-74
2023/03/08 03:29:04;;;;;;;0.73;0.73;;;;;;;12.10;61.67;99289.31;5091101;28;20278;-73
2023/03/08 03:31:33;;;;;;;0.70;0.70;;;;;;;12.14;61.60;99292.75;5089951;28;20222;-74
2023/03/08 03:34:00;;;;;;;0.70;0.70;;;;;;;12.02;61.45;99283.28;5090908;28;20202;-73
2023/03/08 03:36:27;;;;;;;0.75;0.75;;;;;;;12.09;61.24;99297.13;5089729;28;20225;-73
2023/03/08 03:38:55;;;;;;;0.73;0.73;;;;;;;12.06;61.39;99303.19;5090866;28;20593;-74
2023/03/08 03:41:23;;;;;;;0.70;0.70;;;;;;;12.08;61.67;99305.78;5039198;28;20202;-74
2023/03/08 03:43:50;;;;;;;0.63;0.63;;;;;;;11.95;61.38;99291.13;5090794;28;20206;-74
2023/03/08 03:46:19;;;;;;;1.05;1.05;;;;;;;12.08;61.30;99314.44;5090436;28;20202;-73
2023/03/08 03:48:47;;;;;;;1.15;1.15;;;;;;;12.08;61.47;99313.59;5090284;28;20194;-74
2023/03/08 03:51:15;;;;;;;0.90;0.90;;;;;;;11.96;61.13;99296.28;5090114;28;20226;-74
2023/03/08 03:53:43;;;;;;;0.60;0.60;;;;;;;12.06;61.30;99316.16;5033143;28;20206;-73
2023/03/08 03:56:13;;;;;;;0.68;0.68;;;;;;;12.03;61.03;99316.19;5085735;28;20213;-73
2023/03/08 03:58:40;;;;;;;0.70;0.70;;;;;;;11.86;61.22;99289.41;5090370;28;20233;-74
2023/03/08 04:01:08;;;;;;;0.70;0.70;;;;;;;11.89;61.66;99295.44;5090457;28;20206;-73
2023/03/08 04:03:35;;;;;;;0.60;0.60;;;;;;;12.02;61.21;99322.25;5086547;28;20206;-73
2023/03/08 04:06:07;;;;;;;0.70;0.70;;;;;;;12.08;61.04;99324.84;5078417;28;20545;-73
2023/03/08 04:08:34;;;;;;;0.70;0.70;;;;;;;11.98;60.91;99325.75;5077650;28;20701;-73
2023/03/08 04:11:01;;;;;;;0.70;0.70;;;;;;;12.07;60.94;99335.22;5086530;28;20608;-74
2023/03/08 04:13:28;;;;;;;0.77;0.77;;;;;;;12.14;60.58;99330.00;5089501;28;20217;-73
2023/03/08 04:15:54;;;;;;;0.82;0.82;;;;;;;12.10;60.35;99324.81;5054295;28;20194;-74
2023/03/08 04:18:21;;;;;;;0.82;0.82;;;;;;;12.08;60.12;99314.44;5090428;28;20190;-73
2023/03/08 04:20:48;;;;;;;0.60;0.60;;;;;;;12.17;60.08;99327.38;5084892;28;20238;-74
2023/03/08 04:23:16;;;;;;;0.70;0.70;;;;;;;12.34;60.19;99341.19;5070239;28;20210;-74
2023/03/08 04:25:43;;;;;;;0.80;0.80;;;;;;;12.38;59.50;99340.31;5070297;28;20206;-72
2023/03/08 04:28:10;;;;;;;0.60;0.60;;;;;;;12.33;59.66;99331.69;5074866;28;20206;-73
2023/03/08 04:30:36;;;;;;;0.70;0.70;;;;;;;12.49;59.21;99349.78;5034339;28;20215;-74
2023/03/08 04:33:03;;;;;;;0.50;0.50;;;;;;;12.48;58.79;99340.28;5036653;28;20707;-73
2023/03/08 04:35:30;;;;;;;0.70;0.70;;;;;;;12.39;59.50;99334.25;5089966;28;20205;-73
2023/03/08 04:37:57;;;;;;;1.48;1.35;;;;;;;12.39;59.54;99344.66;5090354;28;20221;-74
2023/03/08 04:40:25;;;;;;;0.60;0.60;;;;;;;12.40;59.92;99345.50;5085129;28;20221;-73
2023/03/08 04:42:52;;;;;;;1.55;1.45;;;;;;;12.33;60.09;99346.41;5046699;28;20207;-73
2023/03/08 04:45:18;;;;;;;0.70;0.70;;;;;;;12.38;59.75;99353.31;5035942;28;20206;-73
2023/03/08 04:47:45;;;;;;;0.82;0.82;;;;;;;12.33;59.56;99343.81;5085594;28;20220;-73
2023/03/08 04:50:12;;;;;;;0.90;0.90;;;;;;;12.36;59.76;99349.00;5090595;28;20649;-75
2023/03/08 04:52:40;;;;;;;4.18;2.55;;;;;;;12.39;59.51;99354.16;5041608;28;20238;-74
2023/03/08 04:55:07;;;;;;;1.42;1.42;;;;;;;12.35;59.45;99352.44;5091351;28;20198;-72
2023/03/08 04:57:35;;;;;;;0.60;0.60;;;;;;;12.21;60.43;99329.13;5073569;28;20227;-73
2023/03/08 05:00:04;;;;;;;1.15;1.15;;;;;;;12.37;59.40;99351.59;5090848;28;20194;-73
2023/03/08 05:02:31;;;;;;;0.60;0.60;;;;;;;12.38;59.47;99360.22;5093586;28;20202;-73
2023/03/08 05:04:58;;;;;;;0.80;0.80;;;;;;;12.32;60.19;99363.72;5082158;28;20230;-73
2023/03/08 05:07:25;;;;;;;0.90;0.90;;;;;;;12.34;59.80;99354.19;5090466;28;20194;-73
2023/03/08 05:09:51;;;;;;;0.90;0.90;;;;;;;12.33;59.86;99360.28;5083728;28;20206;-73
2023/03/08 05:12:19;;;;;;;0.70;0.70;;;;;;;12.04;59.73;99294.53;5087428;28;20541;-74
2023/03/08 05:14:47;;;;;;;0.70;0.70;;;;;;;12.44;59.91;99362.81;5089959;28;20619;-73
2023/03/08 05:17:14;;;;;;;0.60;0.60;;;;;;;12.42;59.60;99360.22;5057213;28;20217;-73
2023/03/08 05:19:40;;;;;;;0.82;0.82;;;;;;;12.37;59.39;99343.78;5041217;28;20202;-74
2023/03/08 05:22:07;;;;;;;0.80;0.80;;;;;;;12.47;59.51;99369.75;5093503;28;20205;-74
2023/03/08 05:24:34;;;;;;;0.70;0.70;;;;;;;12.45;59.34;99358.50;5093253;28;20664;-74
2023/03/08 05:27:01;;;;;;;0.82;0.82;;;;;;;12.54;59.28;99374.03;5090245;28;21159;-74
2023/03/08 05:29:28;;;;;;;0.70;0.70;;;;;;;12.55;59.40;99376.66;5087082;28;20198;-74
2023/03/08 05:31:57;;;;;;;0.75;0.75;;;;;;;12.61;58.95;99375.75;5093270;28;20272;-73
2023/03/08 05:34:24;;;;;;;1.15;1.15;;;;;;;12.55;58.99;99373.19;5092956;28;20202;-74
2023/03/08 05:36:51;;;;;;;0.70;0.70;;;;;;;12.59;58.99;99378.34;5088227;28;20199;-74
2023/03/08 05:39:18;;;;;;;0.70;0.70;;;;;;;12.51;59.45;99358.47;5085971;28;20197;-75
2023/03/08 05:41:44;;;;;;;0.80;0.80;;;;;;;12.69;58.73;99389.59;5086954;28;20210;-74
2023/03/08 05:44:11;;;;;;;0.80;0.80;;;;;;;12.87;58.25;99392.09;5086848;28;20657;-74
2023/03/08 05:46:38;;;;;;;1.38;1.38;;;;;;;12.90;57.84;99394.69;5093204;28;20202;-74
2023/03/08 05:49:07;;;;;;;0.90;0.90;;;;;;;13.02;58.12;99394.59;5034915;28;20207;-74
2023/03/08 05:51:33;;;;;;;0.70;0.70;;;;;;;12.91;57.55;99360.81;5089959;28;20657;-74
2023/03/08 05:54:00;;;;;;;0.70;0.70;;;;;;;13.23;57.11;99407.53;5092107;28;20201;-72
2023/03/08 05:56:27;;;;;;;0.80;0.80;;;;;;;13.35;58.56;99411.78;5091752;28;20201;-70
2023/03/08 05:58:55;;;;;;;0.70;0.70;;;;;;;13.36;57.33;99411.78;5040260;28;20225;-72
2023/03/08 06:01:24;;;;;;;0.93;0.93;;;;;;;13.29;57.39;99420.50;5090702;28;20217;-74
2023/03/08 06:03:53;;;;;;;0.80;0.80;;;;;;;13.08;58.94;99384.16;5092164;28;20205;-74
2023/03/08 06:06:23;;;;;;;0.70;0.70;;;;;;;13.33;57.96;99430.03;5090331;28;20198;-74
2023/03/08 06:08:50;;;;;;;1.00;1.00;;;;;;;13.40;59.68;99434.31;5091844;28;20700;-73
2023/03/08 06:11:18;;;;;;;0.90;0.90;;;;;;;13.41;57.55;99436.03;5090306;28;20297;-73
2023/03/08 06:13:44;;;;;;;0.75;0.75;;;;;;;13.38;56.38;99438.66;5086089;28;20241;-75
2023/03/08 06:16:12;;;;;;;0.60;0.60;;;;;;;13.45;58.10;99439.47;5091025;28;20194;-73
2023/03/08 06:18:40;;;;;;;0.60;0.60;;;;;;;13.44;57.41;99439.50;5038471;28;20194;-75
2023/03/08 06:21:08;;;;;;;0.60;0.60;;;;;;;13.44;57.45;99447.31;5090317;28;20194;-74
2023/03/08 06:23:37;;;;;;;0.85;0.85;;;;;;;13.34;57.80;99455.16;5087988;28;20677;-73
2023/03/08 06:26:05;;;;;;;0.77;0.77;;;;;;;12.82;58.55;99368.69;5091601;28;20213;-73
2023/03/08 06:28:32;;;;;;;1.52;1.42;;;;;;;13.25;57.94;99454.38;5090416;28;20596;-74
2023/03/08 06:31:00;;;;;;;2.63;1.30;;;;;;;13.16;57.04;99437.03;5091709;28;20210;-73
2023/03/08 06:33:29;;;;;;;0.60;0.60;;;;;;;13.39;57.59;99468.16;5077068;28;20234;-73
2023/03/08 06:35:57;;;;;;;0.60;0.60;;;;;;;13.35;60.40;99451.69;5079893;28;20276;-74
2023/03/08 06:38:24;;;;;;;0.60;0.60;;;;;;;13.44;58.27;99471.63;5091569;28;20237;-73
2023/03/08 06:40:53;;;;;;;0.52;0.52;;;;;;;13.44;57.94;99478.56;5091270;28;20206;-73
2023/03/08 06:43:20;;;;;;;0.70;0.70;;;;;;;13.48;58.44;99477.66;5055670;28;20206;-73
2023/03/08 06:45:47;;;;;;;0.63;0.63;;;;;;;13.49;61.14;99476.78;5091143;28;20627;-74
2023/03/08 06:48:14;;;;;;;0.95;0.95;;;;;;;13.51;58.50;99475.91;5090998;28;20308;-74
2023/03/08 06:50:41;;;;;;;0.68;0.68;;;;;;;13.52;57.12;99484.59;5090771;28;20587;-74
2023/03/08 06:53:08;;;;;;;0.60;0.60;;;;;;;13.57;58.77;99483.66;5055441;28;20229;-73
2023/03/08 06:55:35;;;;;;;0.68;0.68;;;;;;;13.60;57.65;99485.38;5055490;28;20206;-73
2023/03/08 06:58:03;;;;;;;0.70;0.70;;;;;;;13.77;58.42;99491.34;5088901;28;20310;-75
2023/03/08 07:00:31;;;;;;;0.60;0.60;;;;;;;13.74;57.87;99486.16;5089043;28;20204;-75
2023/03/08 07:02:58;;;;;;;0.80;0.80;;;;;;;13.69;57.86;99475.78;5034939;28;20685;-73
2023/03/08 07:05:25;;;;;;;0.70;0.70;;;;;;;13.73;57.12;99466.22;5087425;28;20201;-72
2023/03/08 07:07:52;;;;;;;0.90;0.90;;;;;;;13.87;56.81;99490.41;5090647;28;20205;-74
2023/03/08 07:10:20;;;;;;;0.60;0.60;;;;;;;14.10;57.10;99501.50;5089077;28;20206;-78
2023/03/08 07:12:50;;;;;;;0.60;0.60;;;;;;;14.21;55.65;99507.50;5088526;28;20250;-73
2023/03/08 07:15:20;;;;;;;0.70;0.70;;;;;;;14.26;56.51;99503.13;5087908;28;20191;-74
2023/03/08 07:17:48;;;;;;;0.70;0.70;;;;;;;14.36;54.99;99520.44;5090569;28;20681;-74
2023/03/08 07:20:17;;;;;;;0.80;0.80;;;;;;;14.45;55.18;99518.63;5088809;28;20202;-72
2023/03/08 07:22:45;;;;;;;0.60;0.60;;;;;;;14.50;53.83;99516.81;5090292;28;20217;-73
2023/03/08 07:25:12;;;;;;;0.70;0.70;;;;;;;14.50;53.72;99511.59;5088833;28;20198;-73
2023/03/08 07:27:39;;;;;;;0.60;0.60;;;;;;;14.64;54.02;99517.53;5087322;28;20210;-73
2023/03/08 07:30:08;;;;;;;0.70;0.70;;;;;;;14.69;53.51;99519.25;5073807;28;20281;-72
2023/03/08 07:32:38;;;;;;;0.70;0.70;;;;;;;14.71;53.20;99512.25;5055263;28;20213;-73
2023/03/08 07:35:06;;;;;;;1.00;1.00;;;;;;;14.73;53.33;99507.03;5089344;28;20263;-73
2023/03/08 07:37:33;;;;;;;0.60;0.60;;;;;;;14.77;53.78;99500.84;5087734;28;20205;-72
2023/03/08 07:40:00;;;;;;;0.60;0.60;;;;;;;15.00;52.99;99519.75;5090672;28;20205;-72
2023/03/08 07:42:27;;;;;;;0.70;0.70;;;;;;;14.98;54.08;99523.25;5090808;28;20205;-73
2023/03/08 07:44:54;;;;;;;0.60;0.60;;;;;;;15.00;53.96;99524.97;5086901;28;20206;-73
2023/03/08 07:47:21;;;;;;;0.60;0.60;;;;;;;14.98;53.75;99526.75;5081557;28;20203;-74
2023/03/08 07:49:49;;;;;;;0.60;0.60;;;;;;;14.96;54.68;99528.50;5075630;28;20241;-74
2023/03/08 07:52:16;;;;;;;0.70;0.70;;;;;;;15.03;54.64;99524.91;5079260;28;20190;-74
2023/03/08 07:54:43;;;;;;;0.60;0.60;;;;;;;15.25;54.35;99523.78;5087340;28;20676;-72
2023/03/08 07:57:13;;;;;;;0.60;0.60;;;;;;;15.42;54.15;99539.22;5089803;28;20257;-73
2023/03/08 07:59:40;;;;;;;0.90;0.90;;;;;;;15.46;53.59;99524.38;5090680;28;20591;-73
2023/03/08 08:02:10;;;;;;;0.70;0.70;;;;;;;15.58;54.50;99539.94;5090713;28;20225;-72
2023/03/08 08:04:37;;;;;;;0.70;0.70;;;;;;;15.46;54.18;99506.94;5090870;28;20202;-71
2023/03/08 08:07:06;;;;;;;0.60;0.60;;;;;;;15.79;53.02;99529.16;5086571;28;20558;-72
2023/03/08 08:09:33;;;;;;;0.70;0.70;;;;;;;15.61;53.12;99514.63;5090675;28;20198;-71
2023/03/08 08:11:59;;;;;;;0.70;0.70;;;;;;;15.59;52.18;99511.16;5087277;28;20235;-73
2023/03/08 08:14:26;;;;;;;1.17;1.17;;;;;;;15.80;52.36;99538.75;5081451;28;20229;-72
2023/03/08 08:16:53;;;;;;;0.63;0.63;;;;;;;16.02;51.64;99536.63;5084996;28;20213;-71
2023/03/08 08:19:20;;;;;;;0.70;0.70;;;;;;;16.07;51.85;99533.06;5082912;28;20205;-72
2023/03/08 08:21:46;;;;;;;0.60;0.60;;;;;;;16.06;50.66;99533.94;5092791;28;20658;-70
2023/03/08 08:24:15;;;;;;;0.60;0.60;;;;;;;16.03;49.91;99505.25;5090920;28;20228;-72
2023/03/08 08:26:42;;;;;;;0.80;0.80;;;;;;;16.46;49.54;99533.28;5080399;28;20575;-72
2023/03/08 08:29:09;;;;;;;0.70;0.70;;;;;;;16.48;48.84;99534.13;5089522;28;20206;-74
2023/03/08 08:31:36;;;;;;;0.60;0.60;;;;;;;16.78;47.98;99534.47;5078324;28;20649;-72
2023/03/08 08:34:03;;;;;;;0.60;0.60;;;;;;;16.85;47.43;99535.22;5093304;28;20222;-72
2023/03/08 08:36:30;;;;;;;0.60;0.60;;;;;;;16.70;47.25;99530.25;5091623;28;20670;-72
2023/03/08 08:38:56;;;;;;;0.90;0.90;;;;;;;16.64;47.18;99514.66;5091065;28;20226;-73
2023/03/08 08:41:26;;;;;;;1.25;1.25;;;;;;;16.79;46.99;99535.34;5079995;28;20193;-72
2023/03/08 08:43:55;;;;;;;0.80;0.80;;;;;;;16.79;46.47;99527.47;5092353;28;20293;-71
2023/03/08 08:46:22;;;;;;;0.60;0.60;;;;;;;16.86;46.01;99526.47;5091466;28;20649;-72
2023/03/08 08:48:49;;;;;;;0.70;0.70;;;;;;;16.89;46.03;99539.50;5089387;28;20206;-73
2023/03/08 08:51:16;;;;;;;0.70;0.70;;;;;;;16.82;46.30;99536.13;5084433;28;20218;-72
2023/03/08 08:53:44;;;;;;;0.60;0.60;;;;;;;16.93;45.62;99520.22;5038059;28;20222;-72
2023/03/08 08:56:15;;;;;;;0.70;0.70;;;;;;;17.17;45.25;99540.69;5046199;28;20260;-72
2023/03/08 08:58:45;;;;;;;0.68;0.68;;;;;;;17.07;44.16;99518.19;5093450;28;20222;-74
2023/03/08 09:01:16;;;;;;;0.80;0.80;;;;;;;17.12;43.67;99534.66;5091631;28;20210;-71
2023/03/08 09:03:43;;;;;;;0.60;0.60;;;;;;;17.11;43.53;99527.72;5089437;28;20222;-72
2023/03/08 09:06:10;;;;;;;0.60;0.60;;;;;;;17.01;43.67;99507.84;5093427;28;20719;-72
2023/03/08 09:08:37;;;;;;;0.60;0.60;;;;;;;17.23;43.09;99530.06;5093515;28;20205;-73
2023/03/08 09:11:05;;;;;;;0.80;0.80;;;;;;;17.48;43.18;99540.06;5041496;28;20198;-74
2023/03/08 09:13:33;;;;;;;0.70;0.70;;;;;;;17.40;43.78;99541.97;5093551;28;20621;-73
2023/03/08 09:16:01;;;;;;;0.60;0.60;;;;;;;17.45;43.57;99537.47;5093409;28;20654;-72
2023/03/08 09:18:28;;;;;;;0.60;0.60;;;;;;;17.53;42.27;99548.66;5093278;28;20645;-72
2023/03/08 09:20:54;;;;;;;0.70;0.70;;;;;;;17.38;41.75;99543.75;5093580;28;20194;-72
2023/03/08 09:23:21;;;;;;;0.60;0.60;;;;;;;17.43;41.54;99537.53;5093405;28;20206;-73
2023/03/08 09:25:56;;;;;;;0.70;0.70;;;;;;;17.34;41.52;99528.09;5093366;28;20206;-72
2023/03/08 09:28:23;;;;;;;0.60;0.60;;;;;;;17.05;41.13;99519.97;5091095;28;20597;-72
2023/03/08 09:30:50;;;;;;;0.70;0.70;;;;;;;17.60;41.15;99534.56;5085277;28;20259;-72
2023/03/08 09:33:18;;;;;;;0.63;0.63;;;;;;;17.93;40.90;99532.94;5093174;28;20226;-73
2023/03/08 09:35:45;;;;;;;0.60;0.60;;;;;;;17.80;41.39;99527.97;5093452;28;20719;-72
2023/03/08 09:38:11;;;;;;;0.70;0.70;;;;;;;17.79;41.62;99538.50;5093493;28;20198;-73
2023/03/08 09:40:48;;;;;;;0.70;0.70;;;;;;;17.90;41.33;99544.38;5093512;28;20202;-73
2023/03/08 09:43:24;;;;;;;0.60;0.60;;;;;;;17.97;40.45;99540.69;5093134;28;20213;-72
2023/03/08 09:45:53;;;;;;;0.93;0.93;;;;;;;17.89;40.74;99531.28;5041355;28;20198;-72
2023/03/08 09:48:26;;;;;;;0.70;0.70;;;;;;;18.13;41.20;99552.53;5093240;28;20239;-73
2023/03/08 09:50:56;;;;;;;0.60;0.60;;;;;;;18.24;40.84;99545.28;5093189;28;20202;-72
2023/03/08 09:53:28;;;;;;;0.60;0.60;;;;;;;18.19;41.04;99530.56;5091243;28;20225;-73
2023/03/08 09:56:02;;;;;;;0.60;0.60;;;;;;;18.21;40.75;99547.09;5092652;28;20205;-73
2023/03/08 09:58:34;;;;;;;0.70;0.70;;;;;;;18.01;40.36;99524.00;5092539;28;20767;-72
2023/03/08 10:01:12;;;;;;;0.60;0.60;;;;;;;18.00;40.71;99550.25;5092687;28;20210;-72
2023/03/08 10:04:28;;;;;;;2.38;1.23;;;;;;;18.02;40.99;99533.56;5092714;28;20209;-70
2023/03/08 10:07:17;;;;;;;0.60;0.60;;;;;;;17.88;41.66;99538.28;4990688;28;20237;-71
2023/03/08 10:09:52;;;;;;;0.80;0.80;;;;;;;17.95;41.70;99546.84;4990939;28;20244;-72
2023/03/08 10:12:28;;;;;;;0.60;0.60;;;;;;;17.91;41.49;99532.94;4990954;28;20256;-72
2023/03/08 10:14:58;;;;;;;0.60;0.60;;;;;;;17.71;42.16;99530.81;4990566;28;20256;-73
2023/03/08 10:17:33;;;;;;;0.50;0.50;;;;;;;17.69;42.05;99544.84;4942306;28;20202;-72
2023/03/08 10:20:07;;;;;;;0.60;0.60;;;;;;;17.39;42.94;99519.25;4990811;28;20204;-72
2023/03/08 10:22:38;;;;;;;0.65;0.65;;;;;;;17.19;42.94;99519.69;4991018;28;20197;-71
2023/03/08 10:25:19;;;;;;;0.68;0.68;;;;;;;17.30;42.77;99517.72;4990590;28;20205;-72
2023/03/08 10:27:50;;;;;;;0.60;0.60;;;;;;;17.44;43.11;99541.00;4990956;28;20210;-72
2023/03/08 10:30:19;;;;;;;0.70;0.70;;;;;;;17.06;43.68;99532.16;4990729;28;20248;-72
2023/03/08 10:32:48;;;;;;;0.60;0.60;;;;;;;17.13;44.17;99536.38;4990722;28;20616;-72
2023/03/08 10:35:17;;;;;;;0.60;0.60;;;;;;;17.43;43.51;99532.28;4974059;28;20229;-70
2023/03/08 10:37:50;;;;;;;0.60;0.60;;;;;;;17.23;43.61;99537.91;4990417;28;20716;-73
2023/03/08 10:40:21;;;;;;;0.60;0.60;;;;;;;17.25;43.00;99528.28;4990094;28;20341;-71
2023/03/08 10:42:53;;;;;;;0.68;0.68;;;;;;;17.37;42.81;99523.69;5014325;28;20298;-72
2023/03/08 10:45:23;;;;;;;0.70;0.70;;;;;;;17.31;43.27;99512.44;5091976;28;20190;-72
2023/03/08 10:48:00;;;;;;;0.68;0.68;;;;;;;17.35;43.23;99493.13;5056385;28;20197;-72
2023/03/08 10:50:30;;;;;;;0.63;0.63;;;;;;;17.40;43.22;99489.56;5092211;28;20202;-72
2023/03/08 10:53:08;;;;;;;0.60;0.60;;;;;;;17.75;43.00;99515.88;5092022;28;20198;-72
2023/03/08 10:55:43;;;;;;;0.60;0.60;;;;;;;17.77;42.20;99517.53;5091854;28;20209;-72
2023/03/08 10:58:28;;;;;;;0.70;0.70;;;;;;;17.88;41.75;99508.56;5092052;28;20245;-72
2023/03/08 11:00:57;;;;;;;0.95;0.95;;;;;;;18.00;41.42;99509.16;5092194;28;20194;-72
2023/03/08 11:03:25;;;;;;;0.60;0.60;;;;;;;17.98;40.61;99500.44;5091817;28;20672;-71
2023/03/08 11:05:56;;;;;;;0.60;0.60;;;;;;;18.01;41.10;99502.13;5091952;28;20245;-71
2023/03/08 11:08:25;;;;;;;0.60;0.60;;;;;;;18.18;40.18;99498.19;5091858;28;20205;-71
2023/03/08 11:11:08;;;;;;;1.48;1.35;;;;;;;18.08;40.47;99483.59;5091703;28;20217;-71
2023/03/08 11:13:37;;;;;;;0.85;0.85;;;;;;;18.30;40.04;99489.13;5091618;28;20724;-70
2023/03/08 11:16:14;;;;;;;0.60;0.60;;;;;;;18.30;39.63;99482.13;5092021;28;20229;-71
2023/03/08 11:18:51;;;;;;;0.90;0.90;;;;;;;18.17;39.52;99469.34;5091464;28;20213;-70
2023/03/08 11:21:30;;;;;;;0.70;0.70;;;;;;;18.06;39.28;99488.00;5091474;28;20201;-71
2023/03/08 11:24:07;;;;;;;0.63;0.63;;;;;;;17.86;39.43;99458.78;5091679;28;20225;-71
2023/03/08 11:26:44;;;;;;;0.80;0.80;;;;;;;17.75;39.54;99430.19;5091408;28;20588;-71
2023/03/08 11:29:22;;;;;;;0.60;0.60;;;;;;;18.15;39.56;99451.06;5091412;28;20190;-71
2023/03/08 11:31:58;;;;;;;0.60;0.60;;;;;;;18.25;39.27;99467.41;5091396;28;20198;-71
2023/03/08 11:34:42;;;;;;;0.60;0.60;;;;;;;18.24;38.91;99461.28;5091305;28;20237;-71
2023/03/08 11:37:18;;;;;;;0.65;0.65;;;;;;;18.15;39.10;99458.91;5091333;28;20193;-71
2023/03/08 11:39:48;;;;;;;0.70;0.70;;;;;;;17.93;39.10;99444.63;5091287;28;20208;-71
2023/03/08 11:42:25;;;;;;;0.60;0.60;;;;;;;17.95;38.93;99442.81;5091263;28;20213;-72